sensor_id;sensor_type;location;lat;lon;timestamp;pressure;altitude;pressure_sealevel;temperature;humidity
66381;BME280;53177;52.648;1.214;2023-02-11T00:01:50;102937.75;;;5.11;98.20
66381;BME280;53177;52.648;1.214;2023-02-11T00:04:15;102946.69;;;5.16;98.44
66381;BME280;53177;52.648;1.214;2023-02-11T00:06:41;102956.28;;;5.16;98.36
66381;BME280;53177;52.648;1.214;2023-02-11T00:09:06;102946.44;;;5.09;98.51
66381;BME280;53177;52.648;1.214;2023-02-11T00:11:32;102951.84;;;5.13;98.36
66381;BME280;53177;52.648;1.214;2023-02-11T00:13:59;102948.25;;;5.11;98.76
66381;BME280;53177;52.648;1.214;2023-02-11T00:16:26;102951.59;;;5.07;98.73
66381;BME280;53177;52.648;1.214;2023-02-11T00:18:52;102945.59;;;5.10;98.66
66381;BME280;53177;52.648;1.214;2023-02-11T00:21:22;102941.97;;;5.06;98.58
66381;BME280;53177;52.648;1.214;2023-02-11T00:23:48;102940.22;;;5.07;98.85
66381;BME280;53177;52.648;1.214;2023-02-11T00:26:16;102947.31;;;5.09;99.18
66381;BME280;53177;52.648;1.214;2023-02-11T00:28:43;102950.84;;;5.10;99.18
66381;BME280;53177;52.648;1.214;2023-02-11T00:31:11;102943.97;;;5.13;99.65
66381;BME280;53177;52.648;1.214;2023-02-11T00:33:36;102945.63;;;5.11;99.63
66381;BME280;53177;52.648;1.214;2023-02-11T00:36:06;102942.13;;;5.11;99.81
66381;BME280;53177;52.648;1.214;2023-02-11T00:38:31;102937.94;;;5.16;99.78
66381;BME280;53177;52.648;1.214;2023-02-11T00:40:57;102938.75;;;5.15;99.88
66381;BME280;53177;52.648;1.214;2023-02-11T00:43:23;102939.72;;;5.17;99.27
66381;BME280;53177;52.648;1.214;2023-02-11T00:45:48;102932.78;;;5.19;99.70
66381;BME280;53177;52.648;1.214;2023-02-11T00:48:13;102934.59;;;5.20;99.51
66381;BME280;53177;52.648;1.214;2023-02-11T00:50:39;102932.00;;;5.21;99.95
66381;BME280;53177;52.648;1.214;2023-02-11T00:53:04;102935.84;;;5.31;99.76
66381;BME280;53177;52.648;1.214;2023-02-11T00:55:29;102930.50;;;5.28;99.17
66381;BME280;53177;52.648;1.214;2023-02-11T00:57:55;102937.41;;;5.26;99.51
66381;BME280;53177;52.648;1.214;2023-02-11T01:00:21;102937.56;;;5.30;99.44
66381;BME280;53177;52.648;1.214;2023-02-11T01:02:47;102945.53;;;5.33;99.46
66381;BME280;53177;52.648;1.214;2023-02-11T01:05:12;102945.59;;;5.35;99.93
66381;BME280;53177;52.648;1.214;2023-02-11T01:07:37;102943.81;;;5.34;99.29
66381;BME280;53177;52.648;1.214;2023-02-11T01:10:03;102948.16;;;5.33;99.85
66381;BME280;53177;52.648;1.214;2023-02-11T01:12:29;102956.00;;;5.32;99.87
66381;BME280;53177;52.648;1.214;2023-02-11T01:14:54;102955.94;;;5.30;100.00
66381;BME280;53177;52.648;1.214;2023-02-11T01:17:19;102957.72;;;5.31;100.00
66381;BME280;53177;52.648;1.214;2023-02-11T01:19:45;102957.91;;;5.37;100.00
66381;BME280;53177;52.648;1.214;2023-02-11T01:22:10;102950.00;;;5.36;99.86
66381;BME280;53177;52.648;1.214;2023-02-11T01:24:35;102940.28;;;5.33;99.93
66381;BME280;53177;52.648;1.214;2023-02-11T01:27:01;102943.81;;;5.34;99.69
66381;BME280;53177;52.648;1.214;2023-02-11T01:29:26;102943.81;;;5.34;100.00
66381;BME280;53177;52.648;1.214;2023-02-11T01:31:52;102950.06;;;5.37;100.00
66381;BME280;53177;52.648;1.214;2023-02-11T01:34:17;102944.88;;;5.39;99.79
66381;BME280;53177;52.648;1.214;2023-02-11T01:36:42;102951.22;;;5.46;100.00
66381;BME280;53177;52.648;1.214;2023-02-11T01:39:08;102943.44;;;5.49;99.83
66381;BME280;53177;52.648;1.214;2023-02-11T01:41:34;102939.03;;;5.48;100.00
66381;BME280;53177;52.648;1.214;2023-02-11T01:46:49;102932.13;;;5.50;99.96
66381;BME280;53177;52.648;1.214;2023-02-11T01:49:17;102934.91;;;5.54;100.00
66381;BME280;53177;52.648;1.214;2023-02-11T01:51:48;102937.38;;;5.51;100.00
66381;BME280;53177;52.648;1.214;2023-02-11T01:54:20;102934.13;;;5.58;99.90
66381;BME280;53177;52.648;1.214;2023-02-11T01:57:05;102929.75;;;5.57;99.85
66381;BME280;53177;52.648;1.214;2023-02-11T02:00:12;102929.78;;;5.59;100.00
66381;BME280;53177;52.648;1.214;2023-02-11T02:05:19;102918.50;;;5.61;99.87
66381;BME280;53177;52.648;1.214;2023-02-11T02:07:53;102915.91;;;5.63;99.70
66381;BME280;53177;52.648;1.214;2023-02-11T02:10:24;102926.38;;;5.61;100.00
66381;BME280;53177;52.648;1.214;2023-02-11T02:12:52;102919.59;;;5.68;100.00
66381;BME280;53177;52.648;1.214;2023-02-11T02:15:26;102921.47;;;5.72;100.00
66381;BME280;53177;52.648;1.214;2023-02-11T02:18:33;102915.25;;;5.68;99.44
66381;BME280;53177;52.648;1.214;2023-02-11T02:35:18;102907.72;;;5.79;99.96
66381;BME280;53177;52.648;1.214;2023-02-11T02:37:55;102906.09;;;5.84;100.00
66381;BME280;53177;52.648;1.214;2023-02-11T02:40:34;102910.75;;;5.91;99.88
66381;BME280;53177;52.648;1.214;2023-02-11T02:43:01;102910.78;;;5.93;99.80
66381;BME280;53177;52.648;1.214;2023-02-11T02:45:27;102912.69;;;5.97;99.69
66381;BME280;53177;52.648;1.214;2023-02-11T02:47:53;102912.59;;;5.95;99.68
66381;BME280;53177;52.648;1.214;2023-02-11T02:50:25;102904.06;;;6.01;99.86
66381;BME280;53177;52.648;1.214;2023-02-11T02:53:03;102897.00;;;6.00;99.87
66381;BME280;53177;52.648;1.214;2023-02-11T03:04:18;102910.59;;;6.15;99.45
66381;BME280;53177;52.648;1.214;2023-02-11T03:07:02;102905.44;;;6.18;99.76
66381;BME280;53177;52.648;1.214;2023-02-11T03:09:38;102914.13;;;6.15;99.98
66381;BME280;53177;52.648;1.214;2023-02-11T03:12:05;102898.28;;;6.12;99.52
66381;BME280;53177;52.648;1.214;2023-02-11T03:14:32;102899.34;;;6.19;99.43
66381;BME280;53177;52.648;1.214;2023-02-11T03:17:03;102894.09;;;6.19;99.40
66381;BME280;53177;52.648;1.214;2023-02-11T03:19:38;102884.50;;;6.21;99.17
66381;BME280;53177;52.648;1.214;2023-02-11T03:22:10;102886.31;;;6.22;99.15
66381;BME280;53177;52.648;1.214;2023-02-11T03:24:38;102886.50;;;6.28;99.23
66381;BME280;53177;52.648;1.214;2023-02-11T03:27:16;102890.78;;;6.24;98.96
66381;BME280;53177;52.648;1.214;2023-02-11T03:29:52;102888.19;;;6.26;99.88
66381;BME280;53177;52.648;1.214;2023-02-11T03:32:26;102890.78;;;6.24;99.53
66381;BME280;53177;52.648;1.214;2023-02-11T03:40:00;102881.19;;;6.26;99.60
66381;BME280;53177;52.648;1.214;2023-02-11T03:42:31;102877.81;;;6.30;99.18
66381;BME280;53177;52.648;1.214;2023-02-11T03:45:08;102884.63;;;6.24;99.10
66381;BME280;53177;52.648;1.214;2023-02-11T03:47:38;102890.94;;;6.30;99.79
66381;BME280;53177;52.648;1.214;2023-02-11T03:50:07;102891.03;;;6.33;99.24
66381;BME280;53177;52.648;1.214;2023-02-11T03:52:34;102891.94;;;6.34;98.74
66381;BME280;53177;52.648;1.214;2023-02-11T03:55:05;102888.47;;;6.35;99.01
66381;BME280;53177;52.648;1.214;2023-02-11T03:57:33;102895.38;;;6.31;98.92
66381;BME280;53177;52.648;1.214;2023-02-11T03:59:59;102883.09;;;6.32;99.08
66381;BME280;53177;52.648;1.214;2023-02-11T04:02:30;102889.31;;;6.34;98.63
66381;BME280;53177;52.648;1.214;2023-02-11T04:04:57;102886.53;;;6.29;98.93
66381;BME280;53177;52.648;1.214;2023-02-11T04:07:22;102892.00;;;6.35;99.57
66381;BME280;53177;52.648;1.214;2023-02-11T04:09:48;102889.22;;;6.31;98.91
66381;BME280;53177;52.648;1.214;2023-02-11T04:12:14;102893.81;;;6.38;98.99
66381;BME280;53177;52.648;1.214;2023-02-11T04:14:39;102889.25;;;6.32;98.89
66381;BME280;53177;52.648;1.214;2023-02-11T04:17:04;102892.00;;;6.35;99.67
66381;BME280;53177;52.648;1.214;2023-02-11T04:19:30;102895.47;;;6.36;98.79
66381;BME280;53177;52.648;1.214;2023-02-11T04:21:55;102902.53;;;6.37;98.57
66381;BME280;53177;52.648;1.214;2023-02-11T04:24:21;102914.75;;;6.35;98.98
66381;BME280;53177;52.648;1.214;2023-02-11T04:26:46;102910.41;;;6.37;99.40
66381;BME280;53177;52.648;1.214;2023-02-11T04:29:12;102907.78;;;6.37;98.99
66381;BME280;53177;52.648;1.214;2023-02-11T04:31:37;102909.66;;;6.41;98.90
66381;BME280;53177;52.648;1.214;2023-02-11T04:34:02;102904.47;;;6.43;98.94
66381;BME280;53177;52.648;1.214;2023-02-11T04:36:28;102898.22;;;6.39;98.43
66381;BME280;53177;52.648;1.214;2023-02-11T04:38:53;102901.06;;;6.47;98.95
66381;BME280;53177;52.648;1.214;2023-02-11T04:41:18;102898.31;;;6.42;98.87
66381;BME280;53177;52.648;1.214;2023-02-11T04:43:44;102906.22;;;6.44;99.00
66381;BME280;53177;52.648;1.214;2023-02-11T04:46:09;102915.13;;;6.49;98.55
66381;BME280;53177;52.648;1.214;2023-02-11T04:48:34;102917.69;;;6.46;98.27
66381;BME280;53177;52.648;1.214;2023-02-11T04:51:00;102913.31;;;6.46;98.54
66381;BME280;53177;52.648;1.214;2023-02-11T04:53:26;102913.44;;;6.51;99.07
66381;BME280;53177;52.648;1.214;2023-02-11T04:55:52;102912.56;;;6.50;98.52
66381;BME280;53177;52.648;1.214;2023-02-11T04:58:18;102916.13;;;6.52;98.11
66381;BME280;53177;52.648;1.214;2023-02-11T05:00:43;102908.06;;;6.46;98.45
66381;BME280;53177;52.648;1.214;2023-02-11T05:03:09;102915.94;;;6.46;98.29
66381;BME280;53177;52.648;1.214;2023-02-11T05:05:37;102912.50;;;6.49;99.01
66381;BME280;53177;52.648;1.214;2023-02-11T05:08:04;102920.41;;;6.49;98.80
66381;BME280;53177;52.648;1.214;2023-02-11T05:10:30;102917.69;;;6.46;98.40
66381;BME280;53177;52.648;1.214;2023-02-11T05:12:56;102921.22;;;6.46;99.01
66381;BME280;53177;52.648;1.214;2023-02-11T05:15:21;102915.09;;;6.47;98.58
66381;BME280;53177;52.648;1.214;2023-02-11T05:17:46;102913.25;;;6.45;99.12
66381;BME280;53177;52.648;1.214;2023-02-11T05:20:13;102924.75;;;6.48;98.66
66381;BME280;53177;52.648;1.214;2023-02-11T05:22:38;102917.69;;;6.46;98.81
66381;BME280;53177;52.648;1.214;2023-02-11T05:25:04;102922.13;;;6.48;98.50
66381;BME280;53177;52.648;1.214;2023-02-11T05:27:29;102923.94;;;6.51;98.44
66381;BME280;53177;52.648;1.214;2023-02-11T05:29:55;102932.63;;;6.48;98.47
66381;BME280;53177;52.648;1.214;2023-02-11T05:32:20;102937.91;;;6.48;98.55
66381;BME280;53177;52.648;1.214;2023-02-11T05:34:45;102943.00;;;6.44;98.68
66381;BME280;53177;52.648;1.214;2023-02-11T05:37:11;102934.22;;;6.43;99.32
66381;BME280;53177;52.648;1.214;2023-02-11T05:39:36;102935.09;;;6.42;98.75
66381;BME280;53177;52.648;1.214;2023-02-11T05:42:02;102935.13;;;6.44;99.09
66381;BME280;53177;52.648;1.214;2023-02-11T05:44:27;102944.88;;;6.46;98.39
66381;BME280;53177;52.648;1.214;2023-02-11T05:46:52;102947.50;;;6.48;99.14
66381;BME280;53177;52.648;1.214;2023-02-11T05:49:18;102946.59;;;6.46;98.53
66381;BME280;53177;52.648;1.214;2023-02-11T05:51:43;102948.25;;;6.44;99.33
66381;BME280;53177;52.648;1.214;2023-02-11T05:54:08;102961.47;;;6.45;99.10
66381;BME280;53177;52.648;1.214;2023-02-11T05:56:34;102962.31;;;6.44;98.90
66381;BME280;53177;52.648;1.214;2023-02-11T05:58:59;102959.59;;;6.41;99.37
66381;BME280;53177;52.648;1.214;2023-02-11T06:01:26;102959.59;;;6.41;99.09
66381;BME280;53177;52.648;1.214;2023-02-11T06:03:52;102951.78;;;6.44;99.09
66381;BME280;53177;52.648;1.214;2023-02-11T06:06:17;102951.75;;;6.43;98.93
66381;BME280;53177;52.648;1.214;2023-02-11T06:08:42;102937.97;;;6.51;99.12
66381;BME280;53177;52.648;1.214;2023-02-11T06:11:08;102951.94;;;6.49;98.72
66381;BME280;53177;52.648;1.214;2023-02-11T06:13:34;102952.84;;;6.51;98.57
66381;BME280;53177;52.648;1.214;2023-02-11T06:16:01;102957.28;;;6.52;98.52
66381;BME280;53177;52.648;1.214;2023-02-11T06:18:27;102953.84;;;6.54;98.38
66381;BME280;53177;52.648;1.214;2023-02-11T06:20:52;102954.78;;;6.56;98.62
66381;BME280;53177;52.648;1.214;2023-02-11T06:23:18;102950.38;;;6.55;98.64
66381;BME280;53177;52.648;1.214;2023-02-11T06:25:43;102938.88;;;6.52;98.48
66381;BME280;53177;52.648;1.214;2023-02-11T06:28:08;102938.13;;;6.56;98.07
66381;BME280;53177;52.648;1.214;2023-02-11T06:30:36;102942.78;;;6.66;98.16
66381;BME280;53177;52.648;1.214;2023-02-11T06:33:01;102939.38;;;6.68;97.74
66381;BME280;53177;52.648;1.214;2023-02-11T06:35:27;102941.78;;;6.61;98.12
66381;BME280;53177;52.648;1.214;2023-02-11T06:37:52;102956.53;;;6.56;98.41
66381;BME280;53177;52.648;1.214;2023-02-11T06:40:19;102954.94;;;6.61;98.04
66381;BME280;53177;52.648;1.214;2023-02-11T06:42:45;102948.50;;;6.51;98.28
66381;BME280;53177;52.648;1.214;2023-02-11T06:45:10;102943.22;;;6.50;98.27
66381;BME280;53177;52.648;1.214;2023-02-11T06:47:38;102945.84;;;6.50;98.79
66381;BME280;53177;52.648;1.214;2023-02-11T06:50:03;102945.03;;;6.52;98.29
66381;BME280;53177;52.648;1.214;2023-02-11T06:52:29;102956.34;;;6.50;98.14
66381;BME280;53177;52.648;1.214;2023-02-11T06:54:55;102972.28;;;6.56;98.25
66381;BME280;53177;52.648;1.214;2023-02-11T06:57:20;102964.25;;;6.51;98.54
66381;BME280;53177;52.648;1.214;2023-02-11T06:59:45;102957.28;;;6.52;98.49
66381;BME280;53177;52.648;1.214;2023-02-11T07:02:11;102953.00;;;6.55;98.23
66381;BME280;53177;52.648;1.214;2023-02-11T07:04:36;102953.19;;;6.61;98.65
66381;BME280;53177;52.648;1.214;2023-02-11T07:07:02;102960.94;;;6.57;97.91
66381;BME280;53177;52.648;1.214;2023-02-11T07:09:30;102961.63;;;6.50;98.23
66381;BME280;53177;52.648;1.214;2023-02-11T07:11:56;102971.25;;;6.51;97.94
66381;BME280;53177;52.648;1.214;2023-02-11T07:14:21;102981.00;;;6.53;98.28
66381;BME280;53177;52.648;1.214;2023-02-11T07:16:47;102976.41;;;6.48;98.47
66381;BME280;53177;52.648;1.214;2023-02-11T07:19:12;102976.34;;;6.45;98.74
66381;BME280;53177;52.648;1.214;2023-02-11T07:21:37;102978.06;;;6.44;98.39
66381;BME280;53177;52.648;1.214;2023-02-11T07:24:07;102976.41;;;6.46;98.73
66381;BME280;53177;52.648;1.214;2023-02-11T07:26:33;102974.00;;;6.54;97.92
66381;BME280;53177;52.648;1.214;2023-02-11T07:28:59;102980.03;;;6.51;98.23
66381;BME280;53177;52.648;1.214;2023-02-11T07:31:26;102988.78;;;6.50;97.60
66381;BME280;53177;52.648;1.214;2023-02-11T07:33:54;102996.03;;;6.59;97.74
66381;BME280;53177;52.648;1.214;2023-02-11T07:36:20;102997.75;;;6.57;97.34
66381;BME280;53177;52.648;1.214;2023-02-11T07:38:46;103003.91;;;6.57;97.17
66381;BME280;53177;52.648;1.214;2023-02-11T07:41:13;103006.47;;;6.56;97.58
66381;BME280;53177;52.648;1.214;2023-02-11T07:43:40;103009.03;;;6.54;97.47
66381;BME280;53177;52.648;1.214;2023-02-11T07:46:08;102995.13;;;6.57;97.16
66381;BME280;53177;52.648;1.214;2023-02-11T07:48:34;103015.34;;;6.59;97.23
66381;BME280;53177;52.648;1.214;2023-02-11T07:51:13;103007.38;;;6.56;96.66
66381;BME280;53177;52.648;1.214;2023-02-11T07:53:39;103011.72;;;6.56;96.68
66381;BME280;53177;52.648;1.214;2023-02-11T07:56:06;103010.88;;;6.57;96.39
66381;BME280;53177;52.648;1.214;2023-02-11T07:58:32;103014.34;;;6.56;96.92
66381;BME280;53177;52.648;1.214;2023-02-11T08:01:02;103019.19;;;6.70;96.25
66381;BME280;53177;52.648;1.214;2023-02-11T08:03:28;103022.56;;;6.66;95.90
66381;BME280;53177;52.648;1.214;2023-02-11T08:05:53;103025.16;;;6.65;96.18
66381;BME280;53177;52.648;1.214;2023-02-11T08:08:19;103025.03;;;6.62;96.15
66381;BME280;53177;52.648;1.214;2023-02-11T08:10:44;103028.66;;;6.65;95.85
66381;BME280;53177;52.648;1.214;2023-02-11T08:13:09;103039.16;;;6.65;95.90
66381;BME280;53177;52.648;1.214;2023-02-11T08:15:35;103029.53;;;6.64;96.07
66381;BME280;53177;52.648;1.214;2023-02-11T08:18:00;103034.72;;;6.63;96.16
66381;BME280;53177;52.648;1.214;2023-02-11T08:20:27;103038.41;;;6.68;95.73
66381;BME280;53177;52.648;1.214;2023-02-11T08:22:53;103039.38;;;6.71;95.65
66381;BME280;53177;52.648;1.214;2023-02-11T08:25:18;103047.50;;;6.79;95.88
66381;BME280;53177;52.648;1.214;2023-02-11T08:27:43;103051.94;;;6.81;95.67
66381;BME280;53177;52.648;1.214;2023-02-11T08:30:09;103047.44;;;6.77;95.36
66381;BME280;53177;52.648;1.214;2023-02-11T08:32:35;103033.41;;;6.77;95.52
66381;BME280;53177;52.648;1.214;2023-02-11T08:35:00;103025.66;;;6.81;95.35
66381;BME280;53177;52.648;1.214;2023-02-11T08:37:25;103034.44;;;6.82;95.16
66381;BME280;53177;52.648;1.214;2023-02-11T08:39:51;103044.13;;;6.83;94.85
66381;BME280;53177;52.648;1.214;2023-02-11T08:42:16;103048.50;;;6.84;94.57
66381;BME280;53177;52.648;1.214;2023-02-11T08:44:42;103046.63;;;6.80;95.03
66381;BME280;53177;52.648;1.214;2023-02-11T08:47:07;103035.25;;;6.79;95.55
66381;BME280;53177;52.648;1.214;2023-02-11T08:49:33;103036.31;;;6.86;95.28
66381;BME280;53177;52.648;1.214;2023-02-11T08:51:59;103046.91;;;6.89;95.05
66381;BME280;53177;52.648;1.214;2023-02-11T08:54:31;103042.56;;;6.91;94.71
66381;BME280;53177;52.648;1.214;2023-02-11T08:56:56;103049.84;;;6.98;94.72
66381;BME280;53177;52.648;1.214;2023-02-11T08:59:22;103039.34;;;7.00;94.59
66381;BME280;53177;52.648;1.214;2023-02-11T09:01:47;103040.47;;;7.08;93.74
66381;BME280;53177;52.648;1.214;2023-02-11T09:04:13;103049.16;;;7.05;93.34
66381;BME280;53177;52.648;1.214;2023-02-11T09:06:39;103040.50;;;7.09;93.21
66381;BME280;53177;52.648;1.214;2023-02-11T09:09:04;103036.09;;;7.08;93.66
66381;BME280;53177;52.648;1.214;2023-02-11T09:11:33;103053.75;;;7.12;92.89
66381;BME280;53177;52.648;1.214;2023-02-11T09:13:59;103055.94;;;7.28;92.00
66381;BME280;53177;52.648;1.214;2023-02-11T09:16:28;103056.81;;;7.27;92.31
66381;BME280;53177;52.648;1.214;2023-02-11T09:18:56;103046.28;;;7.27;92.58
66381;BME280;53177;52.648;1.214;2023-02-11T09:21:22;103047.28;;;7.31;92.31
66381;BME280;53177;52.648;1.214;2023-02-11T09:23:47;103046.66;;;7.41;92.28
66381;BME280;53177;52.648;1.214;2023-02-11T09:26:14;103051.13;;;7.44;91.48
66381;BME280;53177;52.648;1.214;2023-02-11T09:28:40;103052.84;;;7.43;91.68
66381;BME280;53177;52.648;1.214;2023-02-11T09:31:07;103057.34;;;7.47;90.86
66381;BME280;53177;52.648;1.214;2023-02-11T09:33:33;103055.69;;;7.49;91.09
66381;BME280;53177;52.648;1.214;2023-02-11T09:36:05;103043.50;;;7.54;91.60
66381;BME280;53177;52.648;1.214;2023-02-11T09:38:31;103040.94;;;7.56;90.86
66381;BME280;53177;52.648;1.214;2023-02-11T09:40:57;103052.50;;;7.61;90.83
66381;BME280;53177;52.648;1.214;2023-02-11T09:43:35;103050.00;;;7.67;90.55
66381;BME280;53177;52.648;1.214;2023-02-11T09:46:01;103057.16;;;7.72;89.72
66381;BME280;53177;52.648;1.214;2023-02-11T09:48:31;103057.41;;;7.81;89.52
66381;BME280;53177;52.648;1.214;2023-02-11T09:51:03;103063.59;;;7.83;89.66
66381;BME280;53177;52.648;1.214;2023-02-11T09:53:41;103057.28;;;7.75;88.91
66381;BME280;53177;52.648;1.214;2023-02-11T09:56:13;103052.00;;;7.75;88.79
66381;BME280;53177;52.648;1.214;2023-02-11T09:58:41;103062.69;;;7.81;88.36
66381;BME280;53177;52.648;1.214;2023-02-11T10:01:26;103065.19;;;7.77;88.33
66381;BME280;53177;52.648;1.214;2023-02-11T10:06:54;103061.84;;;7.82;88.53
66381;BME280;53177;52.648;1.214;2023-02-11T10:09:43;103062.75;;;7.83;88.29
66381;BME280;53177;52.648;1.214;2023-02-11T10:15:17;103075.09;;;7.86;87.86
66381;BME280;53177;52.648;1.214;2023-02-11T10:18:00;103074.25;;;7.88;87.06
66381;BME280;53177;52.648;1.214;2023-02-11T10:23:51;103085.31;;;8.08;86.89
66381;BME280;53177;52.648;1.214;2023-02-11T10:26:19;103094.28;;;8.14;86.62
66381;BME280;53177;52.648;1.214;2023-02-11T10:28:50;103092.91;;;8.28;86.74
66381;BME280;53177;52.648;1.214;2023-02-11T10:31:23;103090.53;;;8.39;86.40
66381;BME280;53177;52.648;1.214;2023-02-11T10:34:05;103096.09;;;8.50;85.97
66381;BME280;53177;52.648;1.214;2023-02-11T10:36:36;103097.06;;;8.53;85.69
66381;BME280;53177;52.648;1.214;2023-02-11T10:39:14;103094.50;;;8.58;84.65
66381;BME280;53177;52.648;1.214;2023-02-11T10:41:51;103101.63;;;8.62;84.08
66381;BME280;53177;52.648;1.214;2023-02-11T10:44:45;103106.09;;;8.64;84.19
66381;BME280;53177;52.648;1.214;2023-02-11T10:47:20;103117.44;;;8.62;84.00
66381;BME280;53177;52.648;1.214;2023-02-11T10:49:46;103117.50;;;8.63;84.30
66381;BME280;53177;52.648;1.214;2023-02-11T10:52:24;103127.28;;;8.69;84.27
66381;BME280;53177;52.648;1.214;2023-02-11T10:57:27;103117.16;;;8.86;83.87
66381;BME280;53177;52.648;1.214;2023-02-11T11:00:00;103123.44;;;8.92;82.97
66381;BME280;53177;52.648;1.214;2023-02-11T11:02:33;103131.59;;;9.01;83.78
66381;BME280;53177;52.648;1.214;2023-02-11T11:05:15;103134.22;;;9.01;82.48
66381;BME280;53177;52.648;1.214;2023-02-11T11:07:51;103143.00;;;9.00;82.95
66381;BME280;53177;52.648;1.214;2023-02-11T11:13:01;103137.66;;;8.99;81.14
66381;BME280;53177;52.648;1.214;2023-02-11T11:15:29;103134.19;;;9.00;81.72
66381;BME280;53177;52.648;1.214;2023-02-11T11:18:14;103129.91;;;9.06;80.57
66381;BME280;53177;52.648;1.214;2023-02-11T11:20:54;103134.63;;;9.21;79.49
66381;BME280;53177;52.648;1.214;2023-02-11T11:23:22;103134.63;;;9.21;79.75
66381;BME280;53177;52.648;1.214;2023-02-11T11:26:06;103127.69;;;9.24;78.95
66381;BME280;53177;52.648;1.214;2023-02-11T11:28:40;103120.59;;;9.22;78.59
66381;BME280;53177;52.648;1.214;2023-02-11T11:31:16;103122.34;;;9.21;78.29
66381;BME280;53177;52.648;1.214;2023-02-11T11:33:44;103130.09;;;9.14;77.43
66381;BME280;53177;52.648;1.214;2023-02-11T11:36:13;103123.91;;;9.13;78.28
66381;BME280;53177;52.648;1.214;2023-02-11T11:38:47;103120.38;;;9.11;77.81
66381;BME280;53177;52.648;1.214;2023-02-11T11:41:33;103133.66;;;9.16;78.75
66381;BME280;53177;52.648;1.214;2023-02-11T11:46:37;103110.72;;;9.13;77.99
66381;BME280;53177;52.648;1.214;2023-02-11T11:49:24;103105.44;;;9.13;77.28
66381;BME280;53177;52.648;1.214;2023-02-11T11:54:32;103119.19;;;9.39;77.23
66381;BME280;53177;52.648;1.214;2023-02-11T11:57:11;103114.78;;;9.38;76.03
66381;BME280;53177;52.648;1.214;2023-02-11T11:59:39;103107.88;;;9.45;76.03
66381;BME280;53177;52.648;1.214;2023-02-11T12:05:44;103113.22;;;9.94;75.01
66381;BME280;53177;52.648;1.214;2023-02-11T12:13:45;103106.19;;;9.95;73.02
66381;BME280;53177;52.648;1.214;2023-02-11T12:19:13;103117.56;;;9.89;72.74
66381;BME280;53177;52.648;1.214;2023-02-11T12:24:38;103104.00;;;9.72;73.33
66381;BME280;53177;52.648;1.214;2023-02-11T12:28:11;103106.97;;;9.89;74.34
66381;BME280;53177;52.648;1.214;2023-02-11T12:33:13;103106.97;;;9.89;73.16
66381;BME280;53177;52.648;1.214;2023-02-11T12:35:57;103116.50;;;9.81;72.72
66381;BME280;53177;52.648;1.214;2023-02-11T12:41:26;103125.03;;;9.66;73.03
66381;BME280;53177;52.648;1.214;2023-02-11T12:50:13;103124.03;;;9.60;73.62
66381;BME280;53177;52.648;1.214;2023-02-11T12:55:29;103139.00;;;9.61;72.38
66381;BME280;53177;52.648;1.214;2023-02-11T12:57:59;103140.84;;;9.63;71.98
66381;BME280;53177;52.648;1.214;2023-02-11T13:00:50;103134.75;;;9.69;72.38
66381;BME280;53177;52.648;1.214;2023-02-11T13:03:24;103123.28;;;9.68;72.68
66381;BME280;53177;52.648;1.214;2023-02-11T13:06:02;103117.34;;;9.78;73.28
66381;BME280;53177;52.648;1.214;2023-02-11T13:08:31;103130.66;;;9.85;74.02
66381;BME280;53177;52.648;1.214;2023-02-11T13:11:06;103132.25;;;9.75;72.49
66381;BME280;53177;52.648;1.214;2023-02-11T13:13:50;103127.84;;;9.75;72.30
66381;BME280;53177;52.648;1.214;2023-02-11T13:16:42;103125.13;;;9.71;73.17
66381;BME280;53177;52.648;1.214;2023-02-11T13:27:07;103120.69;;;9.70;72.74
66381;BME280;53177;52.648;1.214;2023-02-11T13:32:14;103119.66;;;9.62;72.14
66381;BME280;53177;52.648;1.214;2023-02-11T13:37:12;103127.69;;;9.66;73.85
66381;BME280;53177;52.648;1.214;2023-02-11T13:40:04;103124.09;;;9.63;73.81
66381;BME280;53177;52.648;1.214;2023-02-11T13:42:31;103120.59;;;9.64;72.52
66381;BME280;53177;52.648;1.214;2023-02-11T13:44:58;103119.59;;;9.59;71.66
66381;BME280;53177;52.648;1.214;2023-02-11T13:47:28;103131.22;;;9.68;72.63
66381;BME280;53177;52.648;1.214;2023-02-11T13:49:54;103126.78;;;9.66;73.46
66381;BME280;53177;52.648;1.214;2023-02-11T13:52:24;103128.34;;;9.56;72.09
66381;BME280;53177;52.648;1.214;2023-02-11T13:54:52;103123.88;;;9.54;72.56
66381;BME280;53177;52.648;1.214;2023-02-11T14:02:36;103112.56;;;9.59;72.27
66381;BME280;53177;52.648;1.214;2023-02-11T14:08:15;103118.59;;;9.54;72.36
66381;BME280;53177;52.648;1.214;2023-02-11T14:16:13;103121.19;;;9.49;72.31
66381;BME280;53177;52.648;1.214;2023-02-11T14:21:32;103121.41;;;9.61;71.80
66381;BME280;53177;52.648;1.214;2023-02-11T14:27:09;103118.38;;;9.42;71.52
66381;BME280;53177;52.648;1.214;2023-02-11T14:32:54;103137.03;;;9.49;73.17
66381;BME280;53177;52.648;1.214;2023-02-11T14:35:38;103136.13;;;9.50;72.66
66381;BME280;53177;52.648;1.214;2023-02-11T14:43:41;103143.09;;;9.45;72.50
66381;BME280;53177;52.648;1.214;2023-02-11T14:46:09;103145.56;;;9.38;70.73
66381;BME280;53177;52.648;1.214;2023-02-11T14:48:36;103131.53;;;9.40;70.05
66381;BME280;53177;52.648;1.214;2023-02-11T14:51:10;103136.91;;;9.45;71.45
66381;BME280;53177;52.648;1.214;2023-02-11T14:53:42;103146.50;;;9.40;70.88
66381;BME280;53177;52.648;1.214;2023-02-11T14:56:22;103134.97;;;9.35;70.44
66381;BME280;53177;52.648;1.214;2023-02-11T14:58:51;103143.66;;;9.31;71.60
66381;BME280;53177;52.648;1.214;2023-02-11T15:01:35;103129.47;;;9.25;71.29
66381;BME280;53177;52.648;1.214;2023-02-11T15:04:13;103130.31;;;9.23;71.21
66381;BME280;53177;52.648;1.214;2023-02-11T15:06:47;103144.28;;;9.19;70.81
66381;BME280;53177;52.648;1.214;2023-02-11T15:09:18;103141.91;;;9.31;70.18
66381;BME280;53177;52.648;1.214;2023-02-11T15:11:47;103138.28;;;9.26;72.32
66381;BME280;53177;52.648;1.214;2023-02-11T15:14:25;103148.84;;;9.27;70.00
66381;BME280;53177;52.648;1.214;2023-02-11T15:16:53;103142.78;;;9.30;72.77